Tattenhall, United Kingdom
Current Conditions -  °F | °C
As of 3:50 PM on Wednesday 28 Jan 2015 (Local Time) from EGNR Reporting Station
Scattered Clouds Scattered Clouds  
Wind Chill: 32°   Ceiling: Unl
Heat Index: 41°   Visibility: 6mi
Dew Point: 30°   Wind: 18mph
Humidity: 65%   Direction: 280°W
Pressure: 29.53"   Gusts: 30mph
Location:  53.12°N, 2.77°W
Report Text: EGNR 281550Z 28016G26KT 240V300 9999 SCT018 SCT036TCU 05/M01 Q1000
Loading
Personal Weather Stations






























Interactive Weather Map New forecast layout! Learn more

10-Day Weather Forecast

Advertisements
Track Severe Weather on mobile